sensor_id;sensor_type;location;lat;lon;timestamp;P1;durP1;ratioP1;P2;durP2;ratioP2
25972;SDS011;13765;51.166;4.466;2023-02-05T00:01:42;29.85;;;9.02;;
25972;SDS011;13765;51.166;4.466;2023-02-05T00:04:08;27.98;;;9.13;;
25972;SDS011;13765;51.166;4.466;2023-02-05T00:06:36;32.05;;;11.13;;
25972;SDS011;13765;51.166;4.466;2023-02-05T00:09:08;26.30;;;10.13;;
25972;SDS011;13765;51.166;4.466;2023-02-05T00:11:36;24.13;;;8.35;;
25972;SDS011;13765;51.166;4.466;2023-02-05T00:14:09;26.90;;;10.77;;
25972;SDS011;13765;51.166;4.466;2023-02-05T00:16:36;30.30;;;9.73;;
25972;SDS011;13765;51.166;4.466;2023-02-05T00:19:05;23.45;;;8.00;;
25972;SDS011;13765;51.166;4.466;2023-02-05T00:21:31;27.65;;;10.27;;
25972;SDS011;13765;51.166;4.466;2023-02-05T00:23:57;25.15;;;9.75;;
25972;SDS011;13765;51.166;4.466;2023-02-05T00:26:23;38.88;;;9.90;;
25972;SDS011;13765;51.166;4.466;2023-02-05T00:28:52;31.10;;;11.75;;
25972;SDS011;13765;51.166;4.466;2023-02-05T00:31:18;25.00;;;8.43;;
25972;SDS011;13765;51.166;4.466;2023-02-05T00:33:45;26.67;;;9.68;;
25972;SDS011;13765;51.166;4.466;2023-02-05T00:36:15;25.27;;;9.73;;
25972;SDS011;13765;51.166;4.466;2023-02-05T00:38:42;28.20;;;10.60;;
25972;SDS011;13765;51.166;4.466;2023-02-05T00:41:13;21.92;;;9.25;;
25972;SDS011;13765;51.166;4.466;2023-02-05T00:43:44;27.38;;;9.68;;
25972;SDS011;13765;51.166;4.466;2023-02-05T00:46:11;27.45;;;10.75;;
25972;SDS011;13765;51.166;4.466;2023-02-05T00:48:37;32.53;;;11.32;;
25972;SDS011;13765;51.166;4.466;2023-02-05T00:51:06;28.35;;;9.35;;
25972;SDS011;13765;51.166;4.466;2023-02-05T00:53:33;24.50;;;9.05;;
25972;SDS011;13765;51.166;4.466;2023-02-05T00:55:59;24.98;;;8.90;;
25972;SDS011;13765;51.166;4.466;2023-02-05T00:58:28;23.92;;;8.18;;
25972;SDS011;13765;51.166;4.466;2023-02-05T01:00:56;28.67;;;9.52;;
25972;SDS011;13765;51.166;4.466;2023-02-05T01:03:22;23.95;;;7.88;;
25972;SDS011;13765;51.166;4.466;2023-02-05T01:05:50;19.85;;;7.35;;
25972;SDS011;13765;51.166;4.466;2023-02-05T01:08:16;23.23;;;8.80;;
25972;SDS011;13765;51.166;4.466;2023-02-05T01:10:43;22.45;;;9.23;;
25972;SDS011;13765;51.166;4.466;2023-02-05T01:13:12;26.08;;;9.38;;
25972;SDS011;13765;51.166;4.466;2023-02-05T01:15:39;18.38;;;7.53;;
25972;SDS011;13765;51.166;4.466;2023-02-05T01:18:08;26.77;;;8.52;;
25972;SDS011;13765;51.166;4.466;2023-02-05T01:20:35;28.27;;;10.43;;
25972;SDS011;13765;51.166;4.466;2023-02-05T01:23:02;21.40;;;7.93;;
25972;SDS011;13765;51.166;4.466;2023-02-05T01:25:31;28.85;;;9.13;;
25972;SDS011;13765;51.166;4.466;2023-02-05T01:27:57;25.50;;;9.07;;
25972;SDS011;13765;51.166;4.466;2023-02-05T01:30:23;30.52;;;9.43;;
25972;SDS011;13765;51.166;4.466;2023-02-05T01:32:49;22.05;;;7.35;;
25972;SDS011;13765;51.166;4.466;2023-02-05T01:35:15;30.48;;;9.55;;
25972;SDS011;13765;51.166;4.466;2023-02-05T01:37:43;25.73;;;9.15;;
25972;SDS011;13765;51.166;4.466;2023-02-05T01:40:14;25.35;;;8.68;;
25972;SDS011;13765;51.166;4.466;2023-02-05T01:42:44;26.33;;;9.65;;
25972;SDS011;13765;51.166;4.466;2023-02-05T01:48:00;31.85;;;9.48;;
25972;SDS011;13765;51.166;4.466;2023-02-05T01:53:05;20.38;;;7.75;;
25972;SDS011;13765;51.166;4.466;2023-02-05T01:55:47;21.63;;;7.93;;
25972;SDS011;13765;51.166;4.466;2023-02-05T01:58:18;23.30;;;7.80;;
25972;SDS011;13765;51.166;4.466;2023-02-05T02:00:47;20.17;;;8.45;;
25972;SDS011;13765;51.166;4.466;2023-02-05T02:03:15;28.02;;;8.10;;
25972;SDS011;13765;51.166;4.466;2023-02-05T02:05:44;23.20;;;9.10;;
25972;SDS011;13765;51.166;4.466;2023-02-05T02:08:11;18.83;;;7.70;;
25972;SDS011;13765;51.166;4.466;2023-02-05T02:10:38;21.42;;;7.32;;
25972;SDS011;13765;51.166;4.466;2023-02-05T02:13:11;26.77;;;8.10;;
25972;SDS011;13765;51.166;4.466;2023-02-05T02:15:38;20.08;;;7.00;;
25972;SDS011;13765;51.166;4.466;2023-02-05T02:18:08;21.48;;;8.10;;
25972;SDS011;13765;51.166;4.466;2023-02-05T02:26:42;15.45;;;5.82;;
25972;SDS011;13765;51.166;4.466;2023-02-05T02:29:44;12.82;;;5.15;;
25972;SDS011;13765;51.166;4.466;2023-02-05T02:32:33;17.30;;;5.97;;
25972;SDS011;13765;51.166;4.466;2023-02-05T02:35:56;12.75;;;4.88;;
25972;SDS011;13765;51.166;4.466;2023-02-05T02:43:42;11.05;;;4.43;;
25972;SDS011;13765;51.166;4.466;2023-02-05T02:46:30;12.68;;;3.95;;
25972;SDS011;13765;51.166;4.466;2023-02-05T02:49:02;17.38;;;4.78;;
25972;SDS011;13765;51.166;4.466;2023-02-05T02:51:30;17.45;;;4.95;;
25972;SDS011;13765;51.166;4.466;2023-02-05T02:53:59;14.30;;;4.43;;
25972;SDS011;13765;51.166;4.466;2023-02-05T02:56:30;8.85;;;3.47;;
25972;SDS011;13765;51.166;4.466;2023-02-05T02:59:01;9.98;;;4.00;;
25972;SDS011;13765;51.166;4.466;2023-02-05T03:01:33;12.50;;;3.50;;
25972;SDS011;13765;51.166;4.466;2023-02-05T03:04:05;8.90;;;3.92;;
25972;SDS011;13765;51.166;4.466;2023-02-05T03:06:52;11.55;;;3.28;;
25972;SDS011;13765;51.166;4.466;2023-02-05T03:12:01;11.57;;;3.30;;
25972;SDS011;13765;51.166;4.466;2023-02-05T03:14:28;10.20;;;3.58;;
25972;SDS011;13765;51.166;4.466;2023-02-05T03:16:57;11.45;;;3.50;;
25972;SDS011;13765;51.166;4.466;2023-02-05T03:19:25;7.05;;;2.80;;
25972;SDS011;13765;51.166;4.466;2023-02-05T03:21:55;6.47;;;2.55;;
25972;SDS011;13765;51.166;4.466;2023-02-05T03:24:24;8.80;;;2.88;;
25972;SDS011;13765;51.166;4.466;2023-02-05T03:26:51;5.80;;;2.15;;
25972;SDS011;13765;51.166;4.466;2023-02-05T03:29:20;7.18;;;2.97;;
25972;SDS011;13765;51.166;4.466;2023-02-05T03:37:43;10.77;;;3.75;;
25972;SDS011;13765;51.166;4.466;2023-02-05T03:54:23;8.70;;;2.65;;
25972;SDS011;13765;51.166;4.466;2023-02-05T03:56:59;12.75;;;3.25;;
25972;SDS011;13765;51.166;4.466;2023-02-05T03:59:46;9.63;;;3.55;;
25972;SDS011;13765;51.166;4.466;2023-02-05T04:02:15;11.73;;;4.43;;
25972;SDS011;13765;51.166;4.466;2023-02-05T04:04:42;11.20;;;3.90;;
25972;SDS011;13765;51.166;4.466;2023-02-05T04:07:08;9.82;;;3.25;;
25972;SDS011;13765;51.166;4.466;2023-02-05T04:09:35;9.18;;;3.28;;
25972;SDS011;13765;51.166;4.466;2023-02-05T04:12:03;7.35;;;3.35;;
25972;SDS011;13765;51.166;4.466;2023-02-05T04:14:31;14.98;;;3.55;;
25972;SDS011;13765;51.166;4.466;2023-02-05T04:16:57;9.30;;;2.92;;
25972;SDS011;13765;51.166;4.466;2023-02-05T04:19:23;10.35;;;2.97;;
25972;SDS011;13765;51.166;4.466;2023-02-05T04:21:51;9.10;;;3.03;;
25972;SDS011;13765;51.166;4.466;2023-02-05T04:24:17;9.20;;;3.78;;
25972;SDS011;13765;51.166;4.466;2023-02-05T04:26:45;12.35;;;4.07;;
25972;SDS011;13765;51.166;4.466;2023-02-05T04:29:15;11.82;;;4.75;;
25972;SDS011;13765;51.166;4.466;2023-02-05T04:31:40;14.13;;;4.35;;
25972;SDS011;13765;51.166;4.466;2023-02-05T04:34:06;16.42;;;4.60;;
25972;SDS011;13765;51.166;4.466;2023-02-05T04:36:33;12.77;;;3.72;;
25972;SDS011;13765;51.166;4.466;2023-02-05T04:38:59;15.35;;;4.00;;
25972;SDS011;13765;51.166;4.466;2023-02-05T04:41:27;11.52;;;3.50;;
25972;SDS011;13765;51.166;4.466;2023-02-05T04:43:53;17.70;;;3.75;;
25972;SDS011;13765;51.166;4.466;2023-02-05T04:46:19;11.07;;;4.05;;
25972;SDS011;13765;51.166;4.466;2023-02-05T04:48:45;12.48;;;4.43;;
25972;SDS011;13765;51.166;4.466;2023-02-05T04:51:12;12.10;;;4.68;;
25972;SDS011;13765;51.166;4.466;2023-02-05T04:53:41;13.25;;;4.25;;
25972;SDS011;13765;51.166;4.466;2023-02-05T04:56:11;16.73;;;4.68;;
25972;SDS011;13765;51.166;4.466;2023-02-05T04:58:39;16.23;;;5.32;;
25972;SDS011;13765;51.166;4.466;2023-02-05T05:01:11;15.18;;;4.28;;
25972;SDS011;13765;51.166;4.466;2023-02-05T05:03:41;18.83;;;5.47;;
25972;SDS011;13765;51.166;4.466;2023-02-05T05:06:08;15.70;;;5.00;;
25972;SDS011;13765;51.166;4.466;2023-02-05T05:08:39;21.48;;;5.20;;
25972;SDS011;13765;51.166;4.466;2023-02-05T05:11:10;17.75;;;6.05;;
25972;SDS011;13765;51.166;4.466;2023-02-05T05:13:37;19.95;;;5.60;;
25972;SDS011;13765;51.166;4.466;2023-02-05T05:16:11;22.60;;;6.35;;
25972;SDS011;13765;51.166;4.466;2023-02-05T05:18:37;13.60;;;4.65;;
25972;SDS011;13765;51.166;4.466;2023-02-05T05:21:06;25.50;;;8.32;;
25972;SDS011;13765;51.166;4.466;2023-02-05T05:23:33;24.90;;;6.93;;
25972;SDS011;13765;51.166;4.466;2023-02-05T05:26:02;18.10;;;7.40;;
25972;SDS011;13765;51.166;4.466;2023-02-05T05:28:30;17.88;;;6.55;;
25972;SDS011;13765;51.166;4.466;2023-02-05T05:30:58;18.35;;;7.20;;
25972;SDS011;13765;51.166;4.466;2023-02-05T05:33:30;19.65;;;6.38;;
25972;SDS011;13765;51.166;4.466;2023-02-05T05:35:59;21.92;;;6.45;;
25972;SDS011;13765;51.166;4.466;2023-02-05T05:38:25;21.83;;;7.00;;
25972;SDS011;13765;51.166;4.466;2023-02-05T05:40:51;20.02;;;7.20;;
25972;SDS011;13765;51.166;4.466;2023-02-05T05:43:38;29.67;;;8.57;;
25972;SDS011;13765;51.166;4.466;2023-02-05T05:46:17;23.40;;;7.75;;
25972;SDS011;13765;51.166;4.466;2023-02-05T05:48:51;19.38;;;6.57;;
25972;SDS011;13765;51.166;4.466;2023-02-05T05:51:24;17.88;;;6.45;;
25972;SDS011;13765;51.166;4.466;2023-02-05T05:53:54;21.40;;;7.40;;
25972;SDS011;13765;51.166;4.466;2023-02-05T05:56:21;14.75;;;5.80;;
25972;SDS011;13765;51.166;4.466;2023-02-05T05:58:47;13.35;;;5.30;;
25972;SDS011;13765;51.166;4.466;2023-02-05T06:01:15;16.13;;;5.38;;
25972;SDS011;13765;51.166;4.466;2023-02-05T06:03:48;16.88;;;5.22;;
25972;SDS011;13765;51.166;4.466;2023-02-05T06:06:14;16.63;;;6.20;;
25972;SDS011;13765;51.166;4.466;2023-02-05T06:08:42;11.30;;;4.90;;
25972;SDS011;13765;51.166;4.466;2023-02-05T06:11:08;12.65;;;5.22;;
25972;SDS011;13765;51.166;4.466;2023-02-05T06:13:36;9.55;;;3.65;;
25972;SDS011;13765;51.166;4.466;2023-02-05T06:16:05;7.35;;;3.35;;
25972;SDS011;13765;51.166;4.466;2023-02-05T06:18:36;11.95;;;3.28;;
25972;SDS011;13765;51.166;4.466;2023-02-05T06:21:03;7.53;;;3.08;;
25972;SDS011;13765;51.166;4.466;2023-02-05T06:23:36;10.02;;;4.43;;
25972;SDS011;13765;51.166;4.466;2023-02-05T06:26:04;3.90;;;2.05;;
25972;SDS011;13765;51.166;4.466;2023-02-05T06:28:30;5.50;;;2.08;;
25972;SDS011;13765;51.166;4.466;2023-02-05T06:30:58;6.65;;;2.20;;
25972;SDS011;13765;51.166;4.466;2023-02-05T06:33:28;4.53;;;1.33;;
25972;SDS011;13765;51.166;4.466;2023-02-05T06:35:54;2.97;;;1.50;;
25972;SDS011;13765;51.166;4.466;2023-02-05T06:38:22;1.38;;;0.93;;
25972;SDS011;13765;51.166;4.466;2023-02-05T06:40:51;12.30;;;1.67;;
25972;SDS011;13765;51.166;4.466;2023-02-05T06:43:19;12.20;;;1.90;;
25972;SDS011;13765;51.166;4.466;2023-02-05T06:45:44;12.90;;;2.28;;
25972;SDS011;13765;51.166;4.466;2023-02-05T06:48:10;4.55;;;1.50;;
25972;SDS011;13765;51.166;4.466;2023-02-05T06:50:39;4.20;;;2.13;;
25972;SDS011;13765;51.166;4.466;2023-02-05T06:53:05;5.53;;;1.25;;
25972;SDS011;13765;51.166;4.466;2023-02-05T06:55:36;3.47;;;1.33;;
25972;SDS011;13765;51.166;4.466;2023-02-05T06:58:05;3.15;;;1.33;;
25972;SDS011;13765;51.166;4.466;2023-02-05T07:00:32;4.03;;;1.45;;
25972;SDS011;13765;51.166;4.466;2023-02-05T07:02:58;0.98;;;0.70;;
25972;SDS011;13765;51.166;4.466;2023-02-05T07:05:27;0.47;;;0.47;;
25972;SDS011;13765;51.166;4.466;2023-02-05T07:07:53;8.68;;;0.85;;
25972;SDS011;13765;51.166;4.466;2023-02-05T07:10:18;10.75;;;1.65;;
25972;SDS011;13765;51.166;4.466;2023-02-05T07:12:47;1.70;;;0.90;;
25972;SDS011;13765;51.166;4.466;2023-02-05T07:15:13;10.70;;;1.70;;
25972;SDS011;13765;51.166;4.466;2023-02-05T07:17:39;2.75;;;0.77;;
25972;SDS011;13765;51.166;4.466;2023-02-05T07:20:05;2.10;;;0.82;;
25972;SDS011;13765;51.166;4.466;2023-02-05T07:22:32;2.35;;;1.50;;
25972;SDS011;13765;51.166;4.466;2023-02-05T07:25:00;3.72;;;1.27;;
25972;SDS011;13765;51.166;4.466;2023-02-05T07:27:29;0.40;;;0.40;;
25972;SDS011;13765;51.166;4.466;2023-02-05T07:29:55;9.70;;;1.75;;
25972;SDS011;13765;51.166;4.466;2023-02-05T07:32:21;1.17;;;0.95;;
25972;SDS011;13765;51.166;4.466;2023-02-05T07:34:47;2.47;;;0.60;;
25972;SDS011;13765;51.166;4.466;2023-02-05T07:37:16;4.85;;;1.20;;
25972;SDS011;13765;51.166;4.466;2023-02-05T07:39:44;1.30;;;1.20;;
25972;SDS011;13765;51.166;4.466;2023-02-05T07:42:14;1.38;;;0.65;;
25972;SDS011;13765;51.166;4.466;2023-02-05T07:44:40;2.67;;;0.95;;
25972;SDS011;13765;51.166;4.466;2023-02-05T07:47:08;5.80;;;2.03;;
25972;SDS011;13765;51.166;4.466;2023-02-05T07:49:34;8.27;;;1.02;;
25972;SDS011;13765;51.166;4.466;2023-02-05T07:52:00;2.60;;;1.52;;
25972;SDS011;13765;51.166;4.466;2023-02-05T07:54:26;2.42;;;0.82;;
25972;SDS011;13765;51.166;4.466;2023-02-05T07:56:52;16.25;;;2.33;;
25972;SDS011;13765;51.166;4.466;2023-02-05T07:59:19;2.85;;;0.77;;
25972;SDS011;13765;51.166;4.466;2023-02-05T08:01:47;5.65;;;1.33;;
25972;SDS011;13765;51.166;4.466;2023-02-05T08:04:12;4.43;;;1.90;;
25972;SDS011;13765;51.166;4.466;2023-02-05T08:06:40;3.58;;;1.13;;
25972;SDS011;13765;51.166;4.466;2023-02-05T08:09:06;4.57;;;1.52;;
25972;SDS011;13765;51.166;4.466;2023-02-05T08:11:34;4.38;;;1.27;;
25972;SDS011;13765;51.166;4.466;2023-02-05T08:14:01;9.43;;;1.60;;
25972;SDS011;13765;51.166;4.466;2023-02-05T08:16:29;15.77;;;1.10;;
25972;SDS011;13765;51.166;4.466;2023-02-05T08:18:55;9.05;;;1.98;;
25972;SDS011;13765;51.166;4.466;2023-02-05T08:21:20;8.63;;;1.35;;
25972;SDS011;13765;51.166;4.466;2023-02-05T08:23:46;7.22;;;1.73;;
25972;SDS011;13765;51.166;4.466;2023-02-05T08:26:13;4.25;;;0.95;;
25972;SDS011;13765;51.166;4.466;2023-02-05T08:28:39;14.00;;;1.65;;
25972;SDS011;13765;51.166;4.466;2023-02-05T08:31:12;10.98;;;1.92;;
25972;SDS011;13765;51.166;4.466;2023-02-05T08:33:41;13.68;;;2.35;;
25972;SDS011;13765;51.166;4.466;2023-02-05T08:36:09;3.53;;;1.92;;
25972;SDS011;13765;51.166;4.466;2023-02-05T08:38:35;12.82;;;2.03;;
25972;SDS011;13765;51.166;4.466;2023-02-05T08:41:05;10.02;;;1.20;;
25972;SDS011;13765;51.166;4.466;2023-02-05T08:43:37;12.80;;;2.42;;
25972;SDS011;13765;51.166;4.466;2023-02-05T08:46:04;5.95;;;1.40;;
25972;SDS011;13765;51.166;4.466;2023-02-05T08:48:30;8.60;;;2.25;;
25972;SDS011;13765;51.166;4.466;2023-02-05T08:50:57;4.43;;;1.33;;
25972;SDS011;13765;51.166;4.466;2023-02-05T08:53:25;13.00;;;2.03;;
25972;SDS011;13765;51.166;4.466;2023-02-05T08:55:57;7.57;;;1.98;;
25972;SDS011;13765;51.166;4.466;2023-02-05T08:58:26;7.60;;;1.88;;
25972;SDS011;13765;51.166;4.466;2023-02-05T09:00:58;22.33;;;2.38;;
25972;SDS011;13765;51.166;4.466;2023-02-05T09:03:33;6.55;;;1.48;;
25972;SDS011;13765;51.166;4.466;2023-02-05T09:05:59;5.47;;;1.30;;
25972;SDS011;13765;51.166;4.466;2023-02-05T09:08:27;18.98;;;2.38;;
25972;SDS011;13765;51.166;4.466;2023-02-05T09:10:56;11.90;;;2.00;;
25972;SDS011;13765;51.166;4.466;2023-02-05T09:13:22;18.50;;;2.33;;
25972;SDS011;13765;51.166;4.466;2023-02-05T09:15:49;4.18;;;1.10;;
25972;SDS011;13765;51.166;4.466;2023-02-05T09:18:16;11.48;;;1.48;;
25972;SDS011;13765;51.166;4.466;2023-02-05T09:20:43;9.45;;;1.90;;
25972;SDS011;13765;51.166;4.466;2023-02-05T09:23:11;15.70;;;1.75;;
25972;SDS011;13765;51.166;4.466;2023-02-05T09:25:43;10.82;;;1.58;;
25972;SDS011;13765;51.166;4.466;2023-02-05T09:28:10;10.70;;;2.67;;
25972;SDS011;13765;51.166;4.466;2023-02-05T09:30:39;8.07;;;2.30;;
25972;SDS011;13765;51.166;4.466;2023-02-05T09:33:10;15.57;;;1.65;;
25972;SDS011;13765;51.166;4.466;2023-02-05T09:35:38;4.30;;;1.80;;
25972;SDS011;13765;51.166;4.466;2023-02-05T09:38:05;10.77;;;1.90;;
25972;SDS011;13765;51.166;4.466;2023-02-05T09:40:35;8.13;;;1.67;;
25972;SDS011;13765;51.166;4.466;2023-02-05T09:45:59;10.32;;;2.25;;
25972;SDS011;13765;51.166;4.466;2023-02-05T09:51:49;12.60;;;2.50;;
25972;SDS011;13765;51.166;4.466;2023-02-05T09:54:24;11.43;;;1.95;;
25972;SDS011;13765;51.166;4.466;2023-02-05T09:56:56;8.65;;;2.10;;
25972;SDS011;13765;51.166;4.466;2023-02-05T09:59:30;19.10;;;3.15;;
25972;SDS011;13765;51.166;4.466;2023-02-05T10:02:02;13.98;;;2.28;;
25972;SDS011;13765;51.166;4.466;2023-02-05T10:04:44;15.43;;;3.22;;
25972;SDS011;13765;51.166;4.466;2023-02-05T10:15:48;8.82;;;1.65;;
25972;SDS011;13765;51.166;4.466;2023-02-05T10:18:20;26.35;;;4.25;;
25972;SDS011;13765;51.166;4.466;2023-02-05T10:32:06;8.90;;;1.33;;
25972;SDS011;13765;51.166;4.466;2023-02-05T10:37:19;19.27;;;3.65;;
25972;SDS011;13765;51.166;4.466;2023-02-05T10:39:51;11.23;;;1.98;;
25972;SDS011;13765;51.166;4.466;2023-02-05T10:45:19;13.10;;;4.70;;
25972;SDS011;13765;51.166;4.466;2023-02-05T10:53:20;19.48;;;2.72;;
25972;SDS011;13765;51.166;4.466;2023-02-05T10:55:53;9.43;;;2.28;;
25972;SDS011;13765;51.166;4.466;2023-02-05T11:01:06;29.25;;;3.75;;
25972;SDS011;13765;51.166;4.466;2023-02-05T11:03:43;30.30;;;5.22;;
25972;SDS011;13765;51.166;4.466;2023-02-05T11:06:18;16.23;;;2.35;;
25972;SDS011;13765;51.166;4.466;2023-02-05T11:08:46;7.03;;;2.08;;
25972;SDS011;13765;51.166;4.466;2023-02-05T11:11:19;18.73;;;3.67;;
25972;SDS011;13765;51.166;4.466;2023-02-05T11:13:54;7.20;;;2.00;;
25972;SDS011;13765;51.166;4.466;2023-02-05T11:16:24;14.98;;;2.78;;
25972;SDS011;13765;51.166;4.466;2023-02-05T11:19:03;26.17;;;3.15;;
25972;SDS011;13765;51.166;4.466;2023-02-05T11:21:48;14.68;;;2.67;;
25972;SDS011;13765;51.166;4.466;2023-02-05T11:27:25;10.50;;;2.78;;
25972;SDS011;13765;51.166;4.466;2023-02-05T11:29:57;16.35;;;2.35;;
25972;SDS011;13765;51.166;4.466;2023-02-05T11:32:42;16.90;;;2.33;;
25972;SDS011;13765;51.166;4.466;2023-02-05T11:37:46;17.58;;;2.58;;
25972;SDS011;13765;51.166;4.466;2023-02-05T11:45:27;15.07;;;2.83;;
25972;SDS011;13765;51.166;4.466;2023-02-05T11:48:05;33.25;;;3.40;;
25972;SDS011;13765;51.166;4.466;2023-02-05T11:51:08;16.67;;;2.25;;
25972;SDS011;13765;51.166;4.466;2023-02-05T11:53:53;8.95;;;1.92;;
25972;SDS011;13765;51.166;4.466;2023-02-05T11:56:25;23.52;;;2.75;;
25972;SDS011;13765;51.166;4.466;2023-02-05T11:59:01;15.93;;;2.30;;
25972;SDS011;13765;51.166;4.466;2023-02-05T12:01:30;8.68;;;2.35;;
25972;SDS011;13765;51.166;4.466;2023-02-05T12:09:15;22.80;;;3.35;;
25972;SDS011;13765;51.166;4.466;2023-02-05T12:53:16;6.30;;;1.50;;
25972;SDS011;13765;51.166;4.466;2023-02-05T12:59:04;16.45;;;2.35;;
25972;SDS011;13765;51.166;4.466;2023-02-05T13:01:47;12.15;;;1.80;;
25972;SDS011;13765;51.166;4.466;2023-02-05T13:09:41;20.73;;;3.88;;
25972;SDS011;13765;51.166;4.466;2023-02-05T13:12:10;13.05;;;2.25;;
25972;SDS011;13765;51.166;4.466;2023-02-05T13:14:41;21.85;;;2.72;;
25972;SDS011;13765;51.166;4.466;2023-02-05T13:17:14;7.47;;;2.17;;
25972;SDS011;13765;51.166;4.466;2023-02-05T13:20:04;17.92;;;3.25;;
25972;SDS011;13765;51.166;4.466;2023-02-05T13:22:40;11.85;;;3.42;;
25972;SDS011;13765;51.166;4.466;2023-02-05T13:33:49;16.27;;;2.35;;
25972;SDS011;13765;51.166;4.466;2023-02-05T13:41:27;15.60;;;2.63;;
25972;SDS011;13765;51.166;4.466;2023-02-05T13:44:21;13.20;;;2.50;;
25972;SDS011;13765;51.166;4.466;2023-02-05T13:55:24;10.38;;;1.35;;
25972;SDS011;13765;51.166;4.466;2023-02-05T14:00:41;7.07;;;1.63;;
25972;SDS011;13765;51.166;4.466;2023-02-05T14:03:23;16.00;;;2.88;;
25972;SDS011;13765;51.166;4.466;2023-02-05T14:05:51;11.07;;;1.65;;
25972;SDS011;13765;51.166;4.466;2023-02-05T14:08:21;12.05;;;2.20;;
25972;SDS011;13765;51.166;4.466;2023-02-05T14:11:00;14.20;;;1.67;;
25972;SDS011;13765;51.166;4.466;2023-02-05T14:13:29;11.30;;;2.75;;
25972;SDS011;13765;51.166;4.466;2023-02-05T14:16:43;12.10;;;2.47;;
25972;SDS011;13765;51.166;4.466;2023-02-05T14:23:54;3.65;;;1.60;;
25972;SDS011;13765;51.166;4.466;2023-02-05T14:26:49;11.80;;;2.65;;
25972;SDS011;13765;51.166;4.466;2023-02-05T14:29:37;13.98;;;2.22;;
25972;SDS011;13765;51.166;4.466;2023-02-05T14:37:51;12.57;;;2.03;;
25972;SDS011;13765;51.166;4.466;2023-02-05T14:40:32;7.75;;;2.28;;
25972;SDS011;13765;51.166;4.466;2023-02-05T14:43:01;12.30;;;2.15;;
25972;SDS011;13765;51.166;4.466;2023-02-05T14:45:46;14.13;;;2.92;;
25972;SDS011;13765;51.166;4.466;2023-02-05T14:48:28;13.23;;;2.95;;
25972;SDS011;13765;51.166;4.466;2023-02-05T14:51:01;16.88;;;2.35;;
25972;SDS011;13765;51.166;4.466;2023-02-05T14:53:52;16.10;;;2.25;;
25972;SDS011;13765;51.166;4.466;2023-02-05T14:56:27;18.08;;;2.45;;
25972;SDS011;13765;51.166;4.466;2023-02-05T14:58:59;13.30;;;1.67;;
25972;SDS011;13765;51.166;4.466;2023-02-05T15:03:58;6.97;;;1.23;;
25972;SDS011;13765;51.166;4.466;2023-02-05T15:06:28;7.78;;;1.73;;
25972;SDS011;13765;51.166;4.466;2023-02-05T15:14:35;15.20;;;2.33;;
25972;SDS011;13765;51.166;4.466;2023-02-05T15:20:18;21.10;;;3.20;;
25972;SDS011;13765;51.166;4.466;2023-02-05T15:22:52;9.00;;;2.20;;
25972;SDS011;13765;51.166;4.466;2023-02-05T15:28:26;12.25;;;1.77;;
25972;SDS011;13765;51.166;4.466;2023-02-05T15:31:30;9.43;;;1.75;;
25972;SDS011;13765;51.166;4.466;2023-02-05T15:36:39;13.13;;;2.60;;
25972;SDS011;13765;51.166;4.466;2023-02-05T15:39:21;9.30;;;1.73;;
25972;SDS011;13765;51.166;4.466;2023-02-05T15:42:00;11.10;;;1.50;;
25972;SDS011;13765;51.166;4.466;2023-02-05T15:44:29;16.40;;;2.80;;
25972;SDS011;13765;51.166;4.466;2023-02-05T15:46:59;16.67;;;2.05;;
25972;SDS011;13765;51.166;4.466;2023-02-05T15:49:31;16.00;;;3.28;;
25972;SDS011;13765;51.166;4.466;2023-02-05T15:52:03;9.18;;;2.90;;
25972;SDS011;13765;51.166;4.466;2023-02-05T15:54:33;13.10;;;2.47;;
25972;SDS011;13765;51.166;4.466;2023-02-05T15:57:00;19.00;;;2.88;;
25972;SDS011;13765;51.166;4.466;2023-02-05T15:59:29;17.63;;;3.80;;
25972;SDS011;13765;51.166;4.466;2023-02-05T16:02:04;19.42;;;3.17;;
25972;SDS011;13765;51.166;4.466;2023-02-05T16:04:39;7.30;;;2.42;;
25972;SDS011;13765;51.166;4.466;2023-02-05T16:10:18;12.02;;;1.95;;
25972;SDS011;13765;51.166;4.466;2023-02-05T16:12:59;9.52;;;2.08;;
25972;SDS011;13765;51.166;4.466;2023-02-05T16:15:32;8.23;;;2.03;;
25972;SDS011;13765;51.166;4.466;2023-02-05T16:18:03;11.32;;;2.70;;
25972;SDS011;13765;51.166;4.466;2023-02-05T16:20:35;5.05;;;1.45;;
25972;SDS011;13765;51.166;4.466;2023-02-05T16:23:14;10.48;;;1.65;;
25972;SDS011;13765;51.166;4.466;2023-02-05T16:26:02;29.85;;;2.35;;
25972;SDS011;13765;51.166;4.466;2023-02-05T16:28:41;23.38;;;3.65;;
25972;SDS011;13765;51.166;4.466;2023-02-05T16:31:20;14.50;;;2.50;;
25972;SDS011;13765;51.166;4.466;2023-02-05T16:36:20;12.98;;;3.38;;
25972;SDS011;13765;51.166;4.466;2023-02-05T16:38:55;11.88;;;3.40;;
25972;SDS011;13765;51.166;4.466;2023-02-05T16:44:03;5.32;;;1.88;;
25972;SDS011;13765;51.166;4.466;2023-02-05T16:46:31;11.15;;;2.17;;
25972;SDS011;13765;51.166;4.466;2023-02-05T16:52:21;10.45;;;2.03;;
25972;SDS011;13765;51.166;4.466;2023-02-05T16:54:49;12.30;;;2.60;;
25972;SDS011;13765;51.166;4.466;2023-02-05T16:57:21;10.75;;;2.00;;
25972;SDS011;13765;51.166;4.466;2023-02-05T17:00:32;21.88;;;2.88;;
25972;SDS011;13765;51.166;4.466;2023-02-05T17:02:47;8.27;;;3.22;;
25972;SDS011;13765;51.166;4.466;2023-02-05T17:05:22;3.92;;;1.63;;
25972;SDS011;13765;51.166;4.466;2023-02-05T17:07:57;17.63;;;3.45;;
25972;SDS011;13765;51.166;4.466;2023-02-05T17:10:25;19.05;;;2.83;;
25972;SDS011;13765;51.166;4.466;2023-02-05T17:13:23;13.75;;;2.42;;
25972;SDS011;13765;51.166;4.466;2023-02-05T17:15:52;21.55;;;3.65;;
25972;SDS011;13765;51.166;4.466;2023-02-05T17:18:27;15.13;;;3.08;;
25972;SDS011;13765;51.166;4.466;2023-02-05T17:24:00;16.83;;;2.58;;
25972;SDS011;13765;51.166;4.466;2023-02-05T17:26:31;15.35;;;4.03;;
25972;SDS011;13765;51.166;4.466;2023-02-05T17:29:00;22.27;;;4.97;;
25972;SDS011;13765;51.166;4.466;2023-02-05T17:31:28;14.73;;;2.95;;
25972;SDS011;13765;51.166;4.466;2023-02-05T17:33:58;10.80;;;1.85;;
25972;SDS011;13765;51.166;4.466;2023-02-05T17:36:24;22.40;;;3.67;;
25972;SDS011;13765;51.166;4.466;2023-02-05T17:38:50;15.38;;;2.33;;
25972;SDS011;13765;51.166;4.466;2023-02-05T17:41:29;17.77;;;2.75;;
25972;SDS011;13765;51.166;4.466;2023-02-05T17:44:21;21.10;;;2.80;;
25972;SDS011;13765;51.166;4.466;2023-02-05T17:46:47;15.05;;;2.20;;
25972;SDS011;13765;51.166;4.466;2023-02-05T17:49:18;13.85;;;3.05;;
25972;SDS011;13765;51.166;4.466;2023-02-05T17:51:43;11.45;;;3.78;;
25972;SDS011;13765;51.166;4.466;2023-02-05T17:54:13;11.13;;;3.13;;
25972;SDS011;13765;51.166;4.466;2023-02-05T17:56:41;18.77;;;2.40;;
25972;SDS011;13765;51.166;4.466;2023-02-05T17:59:10;14.88;;;3.13;;
25972;SDS011;13765;51.166;4.466;2023-02-05T18:01:41;13.15;;;2.85;;
25972;SDS011;13765;51.166;4.466;2023-02-05T18:04:07;9.60;;;2.95;;
25972;SDS011;13765;51.166;4.466;2023-02-05T18:06:36;12.05;;;3.10;;
25972;SDS011;13765;51.166;4.466;2023-02-05T18:09:03;17.83;;;3.75;;
25972;SDS011;13765;51.166;4.466;2023-02-05T18:11:29;7.45;;;2.70;;
25972;SDS011;13765;51.166;4.466;2023-02-05T18:13:55;10.38;;;2.58;;
25972;SDS011;13765;51.166;4.466;2023-02-05T18:16:24;14.77;;;3.10;;
25972;SDS011;13765;51.166;4.466;2023-02-05T18:18:49;15.85;;;2.83;;
25972;SDS011;13765;51.166;4.466;2023-02-05T18:21:15;10.20;;;2.83;;
25972;SDS011;13765;51.166;4.466;2023-02-05T18:23:41;13.63;;;1.90;;
25972;SDS011;13765;51.166;4.466;2023-02-05T18:26:07;19.50;;;3.70;;
25972;SDS011;13765;51.166;4.466;2023-02-05T18:28:36;14.32;;;3.30;;
25972;SDS011;13765;51.166;4.466;2023-02-05T18:31:05;9.32;;;2.65;;
25972;SDS011;13765;51.166;4.466;2023-02-05T18:33:33;13.40;;;3.53;;